createdAt,value
2017-10-19T00:00:04.432Z,0
2017-10-19T00:01:12.521Z,0
2017-10-19T00:02:20.609Z,0
2017-10-19T00:03:28.712Z,0
2017-10-19T00:04:36.783Z,0
2017-10-19T00:05:44.868Z,0
2017-10-19T00:06:52.958Z,0
2017-10-19T00:08:01.043Z,0
2017-10-19T00:09:09.130Z,0
2017-10-19T00:10:17.237Z,0
2017-10-19T00:11:25.312Z,0
2017-10-19T00:12:33.397Z,0
2017-10-19T00:13:41.484Z,0
2017-10-19T00:14:49.582Z,0
2017-10-19T00:15:57.667Z,0
2017-10-19T00:17:05.757Z,0
2017-10-19T00:18:13.851Z,0
2017-10-19T00:19:21.931Z,0
2017-10-19T00:20:30.018Z,0
2017-10-19T00:21:38.133Z,0
2017-10-19T00:22:46.299Z,0
2017-10-19T00:23:54.386Z,0
2017-10-19T00:25:02.481Z,0
2017-10-19T00:26:10.566Z,0
2017-10-19T00:27:18.650Z,0
2017-10-19T00:28:26.737Z,0
2017-10-19T00:29:34.823Z,0
2017-10-19T00:30:42.916Z,0
2017-10-19T00:31:50.999Z,0
2017-10-19T00:32:59.184Z,0
2017-10-19T00:34:07.177Z,0
2017-10-19T00:35:15.259Z,0
2017-10-19T00:36:23.348Z,0
2017-10-19T00:37:31.435Z,0
2017-10-19T00:38:39.523Z,0
2017-10-19T00:39:47.614Z,0
2017-10-19T00:40:55.697Z,0
2017-10-19T00:42:03.786Z,0
2017-10-19T00:43:11.880Z,0
2017-10-19T00:44:19.981Z,0
2017-10-19T00:45:28.078Z,0
2017-10-19T00:46:36.162Z,0
2017-10-19T00:47:44.253Z,0
2017-10-19T00:48:52.348Z,0
2017-10-19T00:50:00.574Z,0
2017-10-19T00:51:08.515Z,0
2017-10-19T00:52:16.603Z,0
2017-10-19T00:53:24.688Z,0
2017-10-19T00:54:32.776Z,0
2017-10-19T00:55:40.864Z,0
2017-10-19T00:56:48.972Z,0
2017-10-19T00:57:57.043Z,0
2017-10-19T00:59:05.129Z,0
2017-10-19T01:00:13.222Z,0
2017-10-19T01:01:21.311Z,0
2017-10-19T01:02:29.391Z,0
2017-10-19T01:03:37.498Z,0
2017-10-19T01:04:45.563Z,0
2017-10-19T01:05:53.654Z,0
2017-10-19T01:07:01.744Z,0
2017-10-19T01:08:09.830Z,0
2017-10-19T01:09:17.924Z,0
2017-10-19T01:10:26.026Z,0
2017-10-19T01:11:34.107Z,0
2017-10-19T01:12:42.190Z,0
2017-10-19T01:13:50.282Z,0
2017-10-19T01:14:58.367Z,0
2017-10-19T01:16:06.454Z,0
2017-10-19T01:17:14.547Z,0
2017-10-19T01:18:22.635Z,0
2017-10-19T01:19:30.724Z,0
2017-10-19T01:20:38.811Z,0
2017-10-19T01:21:46.914Z,0
2017-10-19T01:22:55.023Z,0
2017-10-19T01:24:03.118Z,0
2017-10-19T01:25:11.201Z,0
2017-10-19T01:26:19.295Z,0
2017-10-19T01:27:27.385Z,0
2017-10-19T01:28:35.561Z,0
2017-10-19T01:29:43.559Z,0
2017-10-19T01:30:51.649Z,0
2017-10-19T01:31:59.736Z,0
2017-10-19T01:33:07.823Z,0
2017-10-19T01:34:15.940Z,0
2017-10-19T01:35:24.005Z,0
2017-10-19T01:36:32.098Z,0
2017-10-19T01:37:40.187Z,0
2017-10-19T01:38:48.272Z,0
2017-10-19T01:39:56.366Z,0
2017-10-19T01:41:04.455Z,0
2017-10-19T01:42:12.545Z,0
2017-10-19T01:43:20.633Z,0
2017-10-19T01:44:28.721Z,0
2017-10-19T01:45:36.811Z,0
2017-10-19T01:46:44.900Z,0
2017-10-19T01:47:52.986Z,0
2017-10-19T01:49:01.075Z,0
2017-10-19T01:50:09.163Z,0
2017-10-19T01:51:17.251Z,0
2017-10-19T01:52:25.338Z,0
2017-10-19T01:53:33.433Z,0
2017-10-19T01:54:41.521Z,0
2017-10-19T01:55:49.610Z,0
2017-10-19T01:56:57.697Z,0
2017-10-19T01:58:05.783Z,0
2017-10-19T01:59:13.871Z,0
2017-10-19T02:00:21.985Z,0
2017-10-19T02:01:30.068Z,0
2017-10-19T02:02:38.137Z,0
2017-10-19T02:03:46.228Z,0
2017-10-19T02:04:54.310Z,0
2017-10-19T02:06:02.402Z,0
2017-10-19T02:07:10.487Z,0
2017-10-19T02:08:18.575Z,0
2017-10-19T02:09:26.663Z,0
2017-10-19T02:10:34.751Z,0
2017-10-19T02:11:42.839Z,0
2017-10-19T02:12:50.955Z,0
2017-10-19T02:13:59.025Z,0
2017-10-19T02:15:07.121Z,0
2017-10-19T02:16:15.200Z,0
2017-10-19T02:17:23.289Z,0
2017-10-19T02:18:31.378Z,0
2017-10-19T02:19:39.467Z,0
2017-10-19T02:20:47.553Z,0
2017-10-19T02:21:55.639Z,0
2017-10-19T02:23:03.729Z,0
2017-10-19T02:24:11.815Z,0
2017-10-19T02:25:19.911Z,0
2017-10-19T02:26:28.005Z,0
2017-10-19T02:27:36.135Z,0
2017-10-19T02:28:44.179Z,0
2017-10-19T02:29:52.267Z,0
2017-10-19T02:31:00.375Z,0
2017-10-19T02:32:08.448Z,0
2017-10-19T02:33:16.583Z,0
2017-10-19T02:34:24.694Z,0
2017-10-19T02:35:32.757Z,0
2017-10-19T02:36:40.843Z,0
2017-10-19T02:37:48.931Z,0
2017-10-19T02:38:57.020Z,0
2017-10-19T02:40:05.109Z,0
2017-10-19T02:41:13.216Z,0
2017-10-19T02:42:21.288Z,0
2017-10-19T02:43:29.372Z,0
2017-10-19T02:44:37.466Z,0
2017-10-19T02:45:45.549Z,0
2017-10-19T02:46:53.637Z,0
2017-10-19T02:48:01.727Z,0
2017-10-19T02:49:09.813Z,0
2017-10-19T02:50:17.920Z,0
2017-10-19T02:51:25.991Z,0
2017-10-19T02:52:34.083Z,0
2017-10-19T02:53:42.187Z,0
2017-10-19T02:54:50.256Z,0
2017-10-19T02:55:58.341Z,0
2017-10-19T02:57:06.427Z,0
2017-10-19T02:58:14.515Z,0
2017-10-19T02:59:22.604Z,0
2017-10-19T03:00:30.692Z,0
2017-10-19T03:01:38.781Z,0
2017-10-19T03:02:46.867Z,0
2017-10-19T03:03:54.956Z,0
2017-10-19T03:05:03.043Z,0
2017-10-19T03:06:11.132Z,0
2017-10-19T03:07:19.217Z,0
2017-10-19T03:08:27.307Z,0
2017-10-19T03:09:35.393Z,0
2017-10-19T03:10:43.482Z,0
2017-10-19T03:11:51.570Z,0
2017-10-19T03:12:59.658Z,0
2017-10-19T03:14:07.747Z,0
2017-10-19T03:15:15.835Z,0
2017-10-19T03:16:23.945Z,0
2017-10-19T03:17:32.017Z,0
2017-10-19T03:18:40.104Z,0
2017-10-19T03:19:48.203Z,0
2017-10-19T03:20:56.279Z,0
2017-10-19T03:22:04.368Z,0
2017-10-19T03:23:12.457Z,0
2017-10-19T03:24:20.547Z,0
2017-10-19T03:25:28.630Z,0
2017-10-19T03:26:36.718Z,0
2017-10-19T03:27:44.805Z,0
2017-10-19T03:28:52.899Z,0
2017-10-19T03:30:01.069Z,0
2017-10-19T03:31:09.121Z,0
2017-10-19T03:32:17.204Z,0
2017-10-19T03:33:25.289Z,0
2017-10-19T03:34:33.380Z,0
2017-10-19T03:35:41.466Z,0
2017-10-19T03:36:49.559Z,0
2017-10-19T03:37:57.644Z,0
2017-10-19T03:39:05.731Z,0
2017-10-19T03:40:13.821Z,0
2017-10-19T03:41:21.918Z,0
2017-10-19T03:42:30.010Z,0
2017-10-19T03:43:38.099Z,0
2017-10-19T03:44:46.186Z,0
2017-10-19T03:45:54.297Z,0
2017-10-19T03:47:02.368Z,0
2017-10-19T03:48:10.449Z,0
2017-10-19T03:49:18.548Z,0
2017-10-19T03:50:26.639Z,0
2017-10-19T03:51:34.722Z,0
2017-10-19T03:52:42.812Z,0
2017-10-19T03:53:50.905Z,0
2017-10-19T03:54:58.988Z,0
2017-10-19T03:56:07.075Z,0
2017-10-19T03:57:15.167Z,0
2017-10-19T03:58:23.267Z,0
2017-10-19T03:59:31.751Z,0
2017-10-19T04:00:39.834Z,0
2017-10-19T04:01:47.945Z,0
2017-10-19T04:02:56.013Z,0
2017-10-19T04:04:04.138Z,0
2017-10-19T04:05:12.204Z,0
2017-10-19T04:06:20.463Z,0
2017-10-19T04:07:28.363Z,0
2017-10-19T04:08:36.465Z,0
2017-10-19T04:09:44.539Z,0
2017-10-19T04:10:52.857Z,0
2017-10-19T04:12:00.722Z,0
2017-10-19T04:13:08.804Z,0
2017-10-19T04:14:16.891Z,0
2017-10-19T04:15:24.982Z,0
2017-10-19T04:16:33.085Z,0
2017-10-19T04:17:41.147Z,0
2017-10-19T04:18:49.393Z,0
2017-10-19T04:19:57.694Z,0
2017-10-19T04:21:05.578Z,0
2017-10-19T04:22:13.665Z,0
2017-10-19T04:23:21.752Z,0
2017-10-19T04:24:29.840Z,0
2017-10-19T04:25:37.928Z,0
2017-10-19T04:26:46.013Z,0
2017-10-19T04:27:54.114Z,0
2017-10-19T04:29:02.191Z,0
2017-10-19T04:30:10.277Z,0
2017-10-19T04:31:18.364Z,0
2017-10-19T04:32:26.450Z,0
2017-10-19T04:33:34.536Z,0
2017-10-19T04:34:42.626Z,0
2017-10-19T04:35:50.738Z,0
2017-10-19T04:36:58.840Z,0
2017-10-19T04:38:06.931Z,0
2017-10-19T04:39:15.241Z,0
2017-10-19T04:40:23.328Z,0
2017-10-19T04:41:31.414Z,0
2017-10-19T04:42:39.507Z,0
2017-10-19T04:43:47.590Z,0
2017-10-19T04:44:55.682Z,0
2017-10-19T04:46:03.764Z,0
2017-10-19T04:47:12.352Z,0
2017-10-19T04:48:20.158Z,0
2017-10-19T04:49:28.244Z,0
2017-10-19T04:50:36.328Z,0
2017-10-19T04:51:44.416Z,0
2017-10-19T04:52:52.502Z,0
2017-10-19T04:54:00.591Z,0
2017-10-19T04:55:08.678Z,0
2017-10-19T04:56:16.765Z,0
2017-10-19T04:57:24.858Z,0
2017-10-19T04:58:32.941Z,0
2017-10-19T04:59:41.026Z,0
2017-10-19T05:00:49.113Z,0
2017-10-19T05:01:57.203Z,0
2017-10-19T05:03:05.290Z,0
2017-10-19T05:04:13.408Z,0
2017-10-19T05:05:21.465Z,0
2017-10-19T05:06:29.552Z,0
2017-10-19T05:07:37.639Z,0
2017-10-19T05:08:45.725Z,0
2017-10-19T05:09:53.812Z,0
2017-10-19T05:11:01.902Z,0
2017-10-19T05:12:09.984Z,0
2017-10-19T05:13:18.074Z,0
2017-10-19T05:14:26.163Z,0
2017-10-19T05:15:34.265Z,0
2017-10-19T05:16:42.335Z,0
2017-10-19T05:17:50.428Z,0
2017-10-19T05:18:58.512Z,0
2017-10-19T05:20:06.827Z,0
2017-10-19T05:21:14.928Z,0
2017-10-19T05:22:22.996Z,0
2017-10-19T05:23:31.084Z,0
2017-10-19T05:24:39.356Z,0
2017-10-19T05:25:47.277Z,0
2017-10-19T05:26:55.345Z,0
2017-10-19T05:28:03.431Z,0
2017-10-19T05:29:11.517Z,0
2017-10-19T05:30:19.605Z,0
2017-10-19T05:31:27.690Z,0
2017-10-19T05:32:35.780Z,0
2017-10-19T05:33:43.864Z,0
2017-10-19T05:34:51.953Z,0
2017-10-19T05:36:00.038Z,0
2017-10-19T05:37:08.126Z,0
2017-10-19T05:38:16.211Z,0
2017-10-19T05:39:24.300Z,0
2017-10-19T05:40:32.386Z,0
2017-10-19T05:41:40.491Z,0
2017-10-19T05:42:48.577Z,0
2017-10-19T05:43:56.662Z,0
2017-10-19T05:45:04.750Z,0
2017-10-19T05:46:12.842Z,0
2017-10-19T05:47:20.928Z,0
2017-10-19T05:48:29.010Z,0
2017-10-19T05:49:37.102Z,0
2017-10-19T05:50:45.183Z,0
2017-10-19T05:51:53.275Z,0
2017-10-19T05:53:01.358Z,0
2017-10-19T05:54:09.443Z,0
2017-10-19T05:55:17.528Z,0
2017-10-19T05:56:25.617Z,4
2017-10-19T05:57:33.705Z,0
2017-10-19T05:58:41.793Z,0
2017-10-19T05:59:49.879Z,0
2017-10-19T06:00:57.965Z,0
2017-10-19T06:02:06.064Z,4
2017-10-19T06:03:14.155Z,4
2017-10-19T06:04:22.245Z,0
2017-10-19T06:05:30.311Z,0
2017-10-19T06:06:38.406Z,0
2017-10-19T06:07:46.485Z,0
2017-10-19T06:08:54.570Z,0
2017-10-19T06:10:02.660Z,0
2017-10-19T06:11:10.748Z,0
2017-10-19T06:12:18.832Z,0
2017-10-19T06:13:26.917Z,0
2017-10-19T06:14:35.010Z,0
2017-10-19T06:15:43.106Z,0
2017-10-19T06:16:51.189Z,0
2017-10-19T06:17:59.274Z,4
2017-10-19T06:19:07.386Z,4
2017-10-19T06:20:15.451Z,4
2017-10-19T06:21:23.533Z,4
2017-10-19T06:22:31.620Z,4
2017-10-19T06:23:39.707Z,4
2017-10-19T06:24:47.796Z,4
2017-10-19T06:25:55.883Z,4
2017-10-19T06:27:03.973Z,0
2017-10-19T06:28:12.285Z,0
2017-10-19T06:29:20.367Z,0
2017-10-19T06:30:28.451Z,0
2017-10-19T06:31:36.540Z,0
2017-10-19T06:32:44.628Z,4
2017-10-19T06:33:52.713Z,4
2017-10-19T06:35:00.994Z,4
2017-10-19T06:36:08.894Z,4
2017-10-19T06:37:16.970Z,4
2017-10-19T06:38:25.064Z,4
2017-10-19T06:39:33.208Z,4
2017-10-19T06:40:41.301Z,4
2017-10-19T06:41:49.381Z,4
2017-10-19T06:42:57.464Z,4
2017-10-19T06:44:05.558Z,0
2017-10-19T06:45:13.638Z,4
2017-10-19T06:46:21.721Z,4
2017-10-19T06:47:29.810Z,4
2017-10-19T06:48:37.900Z,4
2017-10-19T06:49:45.990Z,4
2017-10-19T06:50:54.070Z,4
2017-10-19T06:52:02.157Z,4
2017-10-19T06:53:10.246Z,4
2017-10-19T06:54:18.329Z,8
2017-10-19T06:55:26.416Z,4
2017-10-19T06:56:34.504Z,4
2017-10-19T06:57:42.589Z,4
2017-10-19T06:58:50.674Z,4
2017-10-19T06:59:58.761Z,4
2017-10-19T07:01:06.850Z,4
2017-10-19T07:02:14.939Z,4
2017-10-19T07:03:23.021Z,8
2017-10-19T07:04:31.117Z,8
2017-10-19T07:05:39.202Z,8
2017-10-19T07:06:47.373Z,8
2017-10-19T07:07:55.391Z,4
2017-10-19T07:09:03.471Z,8
2017-10-19T07:10:11.560Z,8
2017-10-19T07:11:19.648Z,8
2017-10-19T07:12:27.734Z,4
2017-10-19T07:13:35.820Z,8
2017-10-19T07:14:44.122Z,8
2017-10-19T07:15:52.216Z,8
2017-10-19T07:17:00.311Z,8
2017-10-19T07:18:08.399Z,8
2017-10-19T07:19:16.487Z,8
2017-10-19T07:20:24.569Z,8
2017-10-19T07:21:32.668Z,8
2017-10-19T07:22:40.766Z,12
2017-10-19T07:23:48.846Z,8
2017-10-19T07:24:56.932Z,12
2017-10-19T07:26:05.027Z,8
2017-10-19T07:27:13.114Z,12
2017-10-19T07:28:21.190Z,12
2017-10-19T07:29:29.292Z,12
2017-10-19T07:30:37.362Z,12
2017-10-19T07:31:45.450Z,12
2017-10-19T07:32:53.542Z,12
2017-10-19T07:34:01.623Z,16
2017-10-19T07:35:09.708Z,12
2017-10-19T07:36:17.797Z,16
2017-10-19T07:37:25.885Z,12
2017-10-19T07:38:33.967Z,12
2017-10-19T07:39:42.058Z,12
2017-10-19T07:40:50.148Z,12
2017-10-19T07:41:58.231Z,16
2017-10-19T07:43:06.312Z,12
2017-10-19T07:44:14.411Z,12
2017-10-19T07:45:22.485Z,12
2017-10-19T07:46:30.575Z,12
2017-10-19T07:47:38.659Z,12
2017-10-19T07:48:46.744Z,16
2017-10-19T07:49:54.849Z,16
2017-10-19T07:51:02.919Z,16
2017-10-19T07:52:11.021Z,12
2017-10-19T07:53:19.167Z,16
2017-10-19T07:54:27.256Z,16
2017-10-19T07:55:35.337Z,16
2017-10-19T07:56:43.422Z,16
2017-10-19T07:57:51.510Z,16
2017-10-19T07:58:59.595Z,16
2017-10-19T08:00:07.680Z,16
2017-10-19T08:01:15.765Z,16
2017-10-19T08:02:23.854Z,16
2017-10-19T08:03:31.949Z,12
2017-10-19T08:04:40.032Z,16
2017-10-19T08:05:48.114Z,16
2017-10-19T08:06:56.200Z,16
2017-10-19T08:08:04.292Z,12
2017-10-19T08:09:12.370Z,16
2017-10-19T08:10:20.457Z,16
2017-10-19T08:11:28.541Z,16
2017-10-19T08:12:36.636Z,20
2017-10-19T08:13:44.714Z,16
2017-10-19T08:14:52.802Z,20
2017-10-19T08:16:00.895Z,20
2017-10-19T08:17:08.973Z,20
2017-10-19T08:18:17.065Z,20
2017-10-19T08:19:25.147Z,20
2017-10-19T08:20:33.231Z,20
2017-10-19T08:21:41.317Z,20
2017-10-19T08:22:49.405Z,20
2017-10-19T08:23:57.491Z,24
2017-10-19T08:25:05.575Z,20
2017-10-19T08:26:13.661Z,20
2017-10-19T08:27:21.748Z,20
2017-10-19T08:28:29.931Z,20
2017-10-19T08:29:37.949Z,24
2017-10-19T08:30:46.050Z,24
2017-10-19T08:31:54.116Z,20
2017-10-19T08:33:02.205Z,24
2017-10-19T08:34:10.307Z,24
2017-10-19T08:35:18.397Z,24
2017-10-19T08:36:26.484Z,24
2017-10-19T08:37:34.570Z,24
2017-10-19T08:38:42.657Z,24
2017-10-19T08:39:50.741Z,24
2017-10-19T08:40:58.828Z,24
2017-10-19T08:42:06.914Z,32
2017-10-19T08:43:15.009Z,28
2017-10-19T08:44:23.096Z,24
2017-10-19T08:45:31.205Z,28
2017-10-19T08:46:39.273Z,28
2017-10-19T08:47:47.356Z,28
2017-10-19T08:48:55.444Z,28
2017-10-19T08:50:03.529Z,24
2017-10-19T08:51:11.615Z,24
2017-10-19T08:52:19.702Z,24
2017-10-19T08:53:27.787Z,28
2017-10-19T08:54:35.874Z,24
2017-10-19T08:55:43.962Z,24
2017-10-19T08:56:52.062Z,24
2017-10-19T08:58:00.131Z,24
2017-10-19T08:59:08.215Z,28
2017-10-19T09:00:16.303Z,28
2017-10-19T09:01:24.390Z,28
2017-10-19T09:02:32.481Z,28
2017-10-19T09:03:40.564Z,28
2017-10-19T09:04:48.654Z,28
2017-10-19T09:05:56.732Z,28
2017-10-19T09:07:04.820Z,28
2017-10-19T09:08:12.909Z,32
2017-10-19T09:09:21.003Z,28
2017-10-19T09:10:29.089Z,32
2017-10-19T09:11:37.178Z,44
2017-10-19T09:12:45.261Z,52
2017-10-19T09:13:53.347Z,52
2017-10-19T09:15:01.433Z,32
2017-10-19T09:16:09.517Z,32
2017-10-19T09:17:17.611Z,36
2017-10-19T09:18:25.697Z,32
2017-10-19T09:19:33.780Z,44
2017-10-19T09:20:41.869Z,36
2017-10-19T09:21:49.953Z,36
2017-10-19T09:22:58.037Z,36
2017-10-19T09:24:06.126Z,36
2017-10-19T09:25:14.207Z,40
2017-10-19T09:26:22.296Z,44
2017-10-19T09:27:30.386Z,32
2017-10-19T09:28:38.467Z,32
2017-10-19T09:29:46.563Z,32
2017-10-19T09:30:54.641Z,32
2017-10-19T09:32:02.729Z,32
2017-10-19T09:33:10.814Z,32
2017-10-19T09:34:18.903Z,32
2017-10-19T09:35:27.003Z,32
2017-10-19T09:36:35.085Z,36
2017-10-19T09:37:43.155Z,32
2017-10-19T09:38:51.244Z,36
2017-10-19T09:39:59.328Z,32
2017-10-19T09:41:07.414Z,32
2017-10-19T09:42:15.506Z,44
2017-10-19T09:43:23.587Z,36
2017-10-19T09:44:31.674Z,32
2017-10-19T09:45:39.760Z,40
2017-10-19T09:46:47.845Z,52
2017-10-19T09:47:55.934Z,40
2017-10-19T09:49:04.019Z,52
2017-10-19T09:50:12.104Z,52
2017-10-19T09:51:20.197Z,32
2017-10-19T09:52:28.276Z,32
2017-10-19T09:53:36.360Z,28
2017-10-19T09:54:44.446Z,24
2017-10-19T09:55:52.533Z,24
2017-10-19T09:57:00.619Z,28
2017-10-19T09:58:08.717Z,32
2017-10-19T09:59:16.792Z,28
2017-10-19T10:00:24.934Z,24
2017-10-19T10:01:33.013Z,24
2017-10-19T10:02:41.101Z,24
2017-10-19T10:03:49.186Z,36
2017-10-19T10:04:57.286Z,44
2017-10-19T10:06:05.359Z,48
2017-10-19T10:07:13.452Z,48
2017-10-19T10:08:21.532Z,48
2017-10-19T10:09:29.638Z,48
2017-10-19T10:10:37.705Z,44
2017-10-19T10:11:45.791Z,44
2017-10-19T10:12:53.876Z,44
2017-10-19T10:14:01.986Z,40
2017-10-19T10:15:10.053Z,32
2017-10-19T10:16:18.136Z,32
2017-10-19T10:17:26.237Z,32
2017-10-19T10:18:34.310Z,28
2017-10-19T10:19:42.395Z,32
2017-10-19T10:20:50.480Z,32
2017-10-19T10:21:58.566Z,28
2017-10-19T10:23:06.655Z,28
2017-10-19T10:24:14.739Z,32
2017-10-19T10:25:22.827Z,28
2017-10-19T10:26:30.911Z,32
2017-10-19T10:27:38.997Z,28
2017-10-19T10:28:47.101Z,32
2017-10-19T10:29:55.185Z,32
2017-10-19T10:31:03.273Z,32
2017-10-19T10:32:11.364Z,36
2017-10-19T10:33:19.443Z,28
2017-10-19T10:34:27.531Z,24
2017-10-19T10:35:35.982Z,28
2017-10-19T10:36:43.708Z,28
2017-10-19T10:37:51.792Z,28
2017-10-19T10:38:59.875Z,28
2017-10-19T10:40:07.965Z,28
2017-10-19T10:41:16.052Z,28
2017-10-19T10:42:24.141Z,28
2017-10-19T10:43:32.229Z,24
2017-10-19T10:44:40.319Z,24
2017-10-19T10:45:48.402Z,24
2017-10-19T10:46:56.487Z,24
2017-10-19T10:48:04.775Z,24
2017-10-19T10:49:12.872Z,20
2017-10-19T10:50:20.967Z,24
2017-10-19T10:51:29.033Z,24
2017-10-19T10:52:37.112Z,24
2017-10-19T10:53:45.204Z,28
2017-10-19T10:54:53.314Z,24
2017-10-19T10:56:01.371Z,24
2017-10-19T10:57:09.457Z,32
2017-10-19T10:58:17.546Z,28
2017-10-19T10:59:25.655Z,32
2017-10-19T11:00:33.738Z,32
2017-10-19T11:01:41.826Z,36
2017-10-19T11:02:49.918Z,32
2017-10-19T11:03:58.000Z,32
2017-10-19T11:05:06.089Z,32
2017-10-19T11:06:14.171Z,28
2017-10-19T11:07:22.259Z,28
2017-10-19T11:08:30.343Z,32
2017-10-19T11:09:38.430Z,28
2017-10-19T11:10:46.517Z,28
2017-10-19T11:11:54.601Z,28
2017-10-19T11:13:02.690Z,24
2017-10-19T11:14:10.774Z,24
2017-10-19T11:15:18.860Z,24
2017-10-19T11:16:26.948Z,24
2017-10-19T11:17:35.052Z,28
2017-10-19T11:18:43.126Z,24
2017-10-19T11:19:51.207Z,28
2017-10-19T11:20:59.296Z,36
2017-10-19T11:22:07.390Z,36
2017-10-19T11:23:15.471Z,40
2017-10-19T11:24:23.564Z,36
2017-10-19T11:25:31.645Z,36
2017-10-19T11:26:39.730Z,32
2017-10-19T11:27:47.817Z,32
2017-10-19T11:28:55.904Z,28
2017-10-19T11:30:04.000Z,32
2017-10-19T11:31:12.081Z,28
2017-10-19T11:32:20.197Z,32
2017-10-19T11:33:28.252Z,32
2017-10-19T11:34:36.341Z,32
2017-10-19T11:35:44.430Z,28
2017-10-19T11:36:52.527Z,28
2017-10-19T11:38:00.611Z,32
2017-10-19T11:39:08.700Z,32
2017-10-19T11:40:16.783Z,32
2017-10-19T11:41:24.879Z,32
2017-10-19T11:42:32.958Z,28
2017-10-19T11:43:41.044Z,28
2017-10-19T11:44:49.328Z,28
2017-10-19T11:45:57.213Z,28
2017-10-19T11:47:05.300Z,28
2017-10-19T11:48:13.387Z,24
2017-10-19T11:49:21.473Z,28
2017-10-19T11:50:29.556Z,24
2017-10-19T11:51:37.643Z,24
2017-10-19T11:52:45.728Z,24
2017-10-19T11:53:53.815Z,24
2017-10-19T11:55:01.901Z,24
2017-10-19T11:56:09.989Z,24
2017-10-19T11:57:18.073Z,24
2017-10-19T11:58:26.187Z,24
2017-10-19T11:59:34.258Z,24
2017-10-19T12:00:42.343Z,24
2017-10-19T12:01:50.425Z,24
2017-10-19T12:02:58.514Z,24
2017-10-19T12:04:06.604Z,24
2017-10-19T12:05:14.688Z,24
2017-10-19T12:06:22.769Z,20
2017-10-19T12:07:30.880Z,20
2017-10-19T12:08:38.949Z,24
2017-10-19T12:09:47.053Z,28
2017-10-19T12:10:55.120Z,24
2017-10-19T12:12:03.217Z,24
2017-10-19T12:13:11.302Z,28
2017-10-19T12:14:19.388Z,28
2017-10-19T12:15:27.472Z,24
2017-10-19T12:16:35.562Z,28
2017-10-19T12:17:43.656Z,24
2017-10-19T12:18:51.733Z,28
2017-10-19T12:19:59.819Z,28
2017-10-19T12:21:07.905Z,28
2017-10-19T12:22:15.990Z,28
2017-10-19T12:23:24.077Z,28
2017-10-19T12:24:32.161Z,28
2017-10-19T12:25:40.248Z,28
2017-10-19T12:26:48.340Z,28
2017-10-19T12:27:56.421Z,32
2017-10-19T12:29:04.506Z,28
2017-10-19T12:30:12.594Z,32
2017-10-19T12:31:20.677Z,32
2017-10-19T12:32:28.765Z,32
2017-10-19T12:33:36.848Z,28
2017-10-19T12:34:44.935Z,28
2017-10-19T12:35:53.026Z,32
2017-10-19T12:37:01.363Z,28
2017-10-19T12:38:09.567Z,28
2017-10-19T12:39:17.650Z,32
2017-10-19T12:40:25.736Z,32
2017-10-19T12:41:33.827Z,32
2017-10-19T12:42:41.935Z,32
2017-10-19T12:43:50.002Z,28
2017-10-19T12:44:58.085Z,32
2017-10-19T12:46:06.172Z,32
2017-10-19T12:47:14.265Z,32
2017-10-19T12:48:22.624Z,32
2017-10-19T12:49:30.708Z,32
2017-10-19T12:50:38.795Z,32
2017-10-19T12:51:46.878Z,32
2017-10-19T12:52:54.965Z,28
2017-10-19T12:54:03.072Z,28
2017-10-19T12:55:11.138Z,28
2017-10-19T12:56:19.236Z,32
2017-10-19T12:57:27.399Z,28
2017-10-19T12:58:35.407Z,28
2017-10-19T12:59:43.497Z,28
2017-10-19T13:00:51.580Z,28
2017-10-19T13:01:59.668Z,24
2017-10-19T13:03:07.757Z,28
2017-10-19T13:04:15.840Z,24
2017-10-19T13:05:23.931Z,28
2017-10-19T13:06:32.014Z,28
2017-10-19T13:07:40.099Z,24
2017-10-19T13:08:48.184Z,24
2017-10-19T13:09:56.270Z,24
2017-10-19T13:11:04.356Z,28
2017-10-19T13:12:12.442Z,28
2017-10-19T13:13:20.529Z,28
2017-10-19T13:14:28.628Z,28
2017-10-19T13:15:36.712Z,28
2017-10-19T13:16:44.798Z,28
2017-10-19T13:17:52.883Z,28
2017-10-19T13:19:00.977Z,28
2017-10-19T13:20:09.056Z,28
2017-10-19T13:21:17.166Z,28
2017-10-19T13:22:25.251Z,28
2017-10-19T13:23:33.334Z,32
2017-10-19T13:24:41.423Z,28
2017-10-19T13:25:49.510Z,28
2017-10-19T13:26:57.597Z,32
2017-10-19T13:28:05.681Z,32
2017-10-19T13:29:13.766Z,28
2017-10-19T13:30:21.860Z,32
2017-10-19T13:31:29.960Z,32
2017-10-19T13:32:38.024Z,32
2017-10-19T13:33:46.119Z,28
2017-10-19T13:34:54.195Z,32
2017-10-19T13:36:02.283Z,32
2017-10-19T13:37:10.368Z,32
2017-10-19T13:38:18.454Z,32
2017-10-19T13:39:26.542Z,36
2017-10-19T13:40:34.633Z,32
2017-10-19T13:41:42.726Z,36
2017-10-19T13:42:50.813Z,36
2017-10-19T13:43:58.917Z,32
2017-10-19T13:45:06.986Z,36
2017-10-19T13:46:15.069Z,36
2017-10-19T13:47:23.180Z,36
2017-10-19T13:48:31.253Z,36
2017-10-19T13:49:39.336Z,36
2017-10-19T13:50:47.423Z,40
2017-10-19T13:51:55.519Z,36
2017-10-19T13:53:03.594Z,36
2017-10-19T13:54:11.680Z,36
2017-10-19T13:55:19.768Z,36
2017-10-19T13:56:27.858Z,36
2017-10-19T13:57:35.945Z,32
2017-10-19T13:58:44.044Z,36
2017-10-19T13:59:52.132Z,36
2017-10-19T14:01:00.214Z,40
2017-10-19T14:02:08.305Z,40
2017-10-19T14:03:16.389Z,44
2017-10-19T14:04:24.479Z,44
2017-10-19T14:05:32.562Z,44
2017-10-19T14:06:40.650Z,40
2017-10-19T14:07:48.736Z,44
2017-10-19T14:08:56.822Z,48
2017-10-19T14:10:04.908Z,48
2017-10-19T14:11:12.999Z,44
2017-10-19T14:12:21.107Z,48
2017-10-19T14:13:29.165Z,52
2017-10-19T14:14:37.253Z,48
2017-10-19T14:15:46.007Z,56
2017-10-19T14:16:54.098Z,56
2017-10-19T14:18:02.206Z,60
2017-10-19T14:19:10.296Z,60
2017-10-19T14:20:18.388Z,64
2017-10-19T14:21:26.470Z,64
2017-10-19T14:22:34.554Z,64
2017-10-19T14:23:42.638Z,64
2017-10-19T14:24:50.727Z,64
2017-10-19T14:25:58.812Z,64
2017-10-19T14:27:06.896Z,64
2017-10-19T14:28:14.987Z,68
2017-10-19T14:29:23.074Z,68
2017-10-19T14:30:31.157Z,68
2017-10-19T14:31:39.249Z,68
2017-10-19T14:32:47.332Z,68
2017-10-19T14:33:55.418Z,64
2017-10-19T14:35:03.505Z,60
2017-10-19T14:36:11.594Z,56
2017-10-19T14:37:19.680Z,56
2017-10-19T14:38:27.777Z,60
2017-10-19T14:39:35.864Z,60
2017-10-19T14:40:43.956Z,52
2017-10-19T14:41:52.038Z,40
2017-10-19T14:43:00.125Z,36
2017-10-19T14:44:08.217Z,36
2017-10-19T14:45:16.294Z,32
2017-10-19T14:46:24.393Z,36
2017-10-19T14:47:32.474Z,36
2017-10-19T14:48:40.559Z,40
2017-10-19T14:49:48.645Z,36
2017-10-19T14:50:56.732Z,40
2017-10-19T14:52:04.817Z,40
2017-10-19T14:53:12.913Z,40
2017-10-19T14:54:21.370Z,36
2017-10-19T14:55:29.083Z,32
2017-10-19T14:56:37.177Z,24
2017-10-19T14:57:45.283Z,16
2017-10-19T14:58:53.350Z,16
2017-10-19T15:00:01.432Z,16
2017-10-19T15:01:09.521Z,16
2017-10-19T15:02:17.609Z,12
2017-10-19T15:03:25.696Z,16
2017-10-19T15:04:33.780Z,16
2017-10-19T15:05:41.864Z,16
2017-10-19T15:06:49.951Z,16
2017-10-19T15:07:58.036Z,12
2017-10-19T15:09:06.134Z,12
2017-10-19T15:10:14.232Z,16
2017-10-19T15:11:22.300Z,12
2017-10-19T15:12:30.429Z,12
2017-10-19T15:13:38.516Z,12
2017-10-19T15:14:46.602Z,12
2017-10-19T15:15:54.689Z,12
2017-10-19T15:17:02.776Z,8
2017-10-19T15:18:10.863Z,12
2017-10-19T15:19:18.948Z,12
2017-10-19T15:20:27.493Z,8
2017-10-19T15:21:35.155Z,12
2017-10-19T15:22:43.207Z,12
2017-10-19T15:23:51.293Z,8
2017-10-19T15:24:59.377Z,8
2017-10-19T15:26:07.473Z,8
2017-10-19T15:27:15.554Z,12
2017-10-19T15:28:23.638Z,12
2017-10-19T15:29:31.729Z,8
2017-10-19T15:30:39.811Z,8
2017-10-19T15:31:47.962Z,8
2017-10-19T15:32:56.003Z,8
2017-10-19T15:34:04.069Z,12
2017-10-19T15:35:12.193Z,8
2017-10-19T15:36:20.240Z,8
2017-10-19T15:37:28.326Z,8
2017-10-19T15:38:36.414Z,4
2017-10-19T15:39:44.500Z,8
2017-10-19T15:40:52.679Z,8
2017-10-19T15:42:00.766Z,8
2017-10-19T15:43:08.853Z,4
2017-10-19T15:44:16.942Z,8
2017-10-19T15:45:25.026Z,8
2017-10-19T15:46:33.110Z,4
2017-10-19T15:47:41.205Z,4
2017-10-19T15:48:49.283Z,4
2017-10-19T15:49:57.369Z,8
2017-10-19T15:51:05.458Z,8
2017-10-19T15:52:13.560Z,4
2017-10-19T15:53:21.625Z,4
2017-10-19T15:54:29.717Z,4
2017-10-19T15:55:37.806Z,4
2017-10-19T15:56:45.895Z,4
2017-10-19T15:57:54.026Z,4
2017-10-19T15:59:02.076Z,4
2017-10-19T16:00:10.289Z,4
2017-10-19T16:01:18.246Z,4
2017-10-19T16:02:26.351Z,4
2017-10-19T16:03:34.423Z,4
2017-10-19T16:04:42.508Z,4
2017-10-19T16:05:50.595Z,4
2017-10-19T16:06:58.678Z,0
2017-10-19T16:08:06.767Z,4
2017-10-19T16:09:14.887Z,4
2017-10-19T16:10:22.976Z,4
2017-10-19T16:11:31.064Z,0
2017-10-19T16:12:39.147Z,0
2017-10-19T16:13:47.234Z,4
2017-10-19T16:14:55.317Z,4
2017-10-19T16:16:03.404Z,0
2017-10-19T16:17:11.490Z,0
2017-10-19T16:18:19.578Z,0
2017-10-19T16:19:27.661Z,4
2017-10-19T16:20:35.749Z,4
2017-10-19T16:21:43.933Z,4
2017-10-19T16:22:51.929Z,4
2017-10-19T16:24:00.023Z,0
2017-10-19T16:25:08.111Z,0
2017-10-19T16:26:16.220Z,0
2017-10-19T16:27:24.288Z,0
2017-10-19T16:28:32.370Z,0